Time;durP1;ratioP1;P1;durP2;ratioP2;P2;SDS_P1;SDS_P2;PMS_P1;PMS_P2;Temp;Humidity;BMP_temperature;BMP_pressure;BME280_temperature;BME280_humidity;BME280_pressure;Samples;Min_cycle;Max_cycle;Signal;HPM_P1;HPM_P2
2022/06/19 00:01:39;;;;;;;8.27;0.98;;;16.00;93.00;;;;;;5003829;28;21017;-46
2022/06/19 00:04:06;;;;;;;8.30;1.08;;;15.90;93.30;;;;;;5005421;28;20034;-48
2022/06/19 00:06:35;;;;;;;10.18;1.33;;;15.90;93.40;;;;;;5005048;28;20499;-46
2022/06/19 00:09:05;;;;;;;9.38;1.70;;;15.90;93.70;;;;;;5006404;28;20037;-47
2022/06/19 00:11:33;;;;;;;7.70;1.23;;;15.90;94.30;;;;;;5008708;28;20046;-46
2022/06/19 00:14:00;;;;;;;11.70;1.70;;;15.80;94.00;;;;;;5000124;28;20045;-44
2022/06/19 00:16:26;;;;;;;8.65;1.35;;;15.90;94.30;;;;;;4967699;28;1109834;-49
2022/06/19 00:18:51;;;;;;;8.77;1.42;;;15.90;94.30;;;;;;4988223;28;20111;-47
2022/06/19 00:21:17;;;;;;;9.05;1.30;;;15.90;94.40;;;;;;5006561;28;20375;-47
2022/06/19 00:23:45;;;;;;;10.13;1.75;;;15.90;94.40;;;;;;4990638;28;20038;-50
2022/06/19 00:26:11;;;;;;;8.57;1.80;;;15.90;94.40;;;;;;5005769;28;20153;-46
2022/06/19 00:28:37;;;;;;;11.60;1.58;;;15.90;94.50;;;;;;5006807;28;20136;-46
2022/06/19 00:31:03;;;;;;;12.80;1.70;;;15.90;94.60;;;;;;5006347;28;20554;-48
2022/06/19 00:33:29;;;;;;;11.15;1.40;;;15.90;94.60;;;;;;5001457;28;20082;-45
2022/06/19 00:35:54;;;;;;;8.35;1.95;;;15.90;94.60;;;;;;5006510;28;20125;-45
2022/06/19 00:38:20;;;;;;;14.57;1.40;;;15.80;94.60;;;;;;5003875;28;20038;-45
2022/06/19 00:40:46;;;;;;;9.15;1.02;;;15.80;94.80;;;;;;4987101;28;20141;-48
2022/06/19 00:43:11;;;;;;;9.25;1.30;;;15.80;94.90;;;;;;5002219;28;20038;-50
2022/06/19 00:45:41;;;;;;;11.70;1.30;;;15.80;94.90;;;;;;5004887;28;20052;-47
2022/06/19 00:48:14;;;;;;;11.38;1.85;;;15.80;95.00;;;;;;4989030;28;20057;-44
2022/06/19 00:50:41;;;;;;;9.30;1.35;;;15.90;95.10;;;;;;5004303;28;20410;-44
2022/06/19 00:53:16;;;;;;;8.20;1.00;;;15.80;94.90;;;;;;5005099;28;20115;-44
2022/06/19 00:55:45;;;;;;;8.23;1.45;;;15.80;94.90;;;;;;5004842;28;20326;-45
2022/06/19 00:58:17;;;;;;;12.80;1.25;;;15.90;95.00;;;;;;5004756;28;20034;-47
2022/06/19 01:00:47;;;;;;;6.68;1.02;;;15.90;95.20;;;;;;4999434;28;20114;-48
2022/06/19 01:03:29;;;;;;;5.72;1.40;;;15.80;94.90;;;;;;5003587;28;20037;-46
2022/06/19 01:05:55;;;;;;;8.68;1.17;;;15.80;95.20;;;;;;5005690;28;20038;-47
2022/06/19 01:08:21;;;;;;;7.72;1.30;;;15.80;95.00;;;;;;5005663;28;20060;-49
2022/06/19 01:10:49;;;;;;;10.30;1.33;;;15.80;95.10;;;;;;5005065;28;20503;-47
2022/06/19 01:13:18;;;;;;;11.57;1.50;;;15.80;95.60;;;;;;4987393;28;20042;-49
2022/06/19 01:15:45;;;;;;;9.80;1.23;;;15.80;95.20;;;;;;5007928;28;20050;-47
2022/06/19 01:18:12;;;;;;;14.43;1.45;;;15.80;95.20;;;;;;5006012;28;20096;-45
2022/06/19 01:20:40;;;;;;;10.02;1.08;;;15.80;95.40;;;;;;5008311;28;20269;-48
2022/06/19 01:23:24;;;;;;;8.95;1.67;;;15.80;95.60;;;;;;5008809;28;20066;-48
2022/06/19 01:25:52;;;;;;;5.13;1.00;;;15.80;95.80;;;;;;5008319;28;20522;-47
2022/06/19 01:31:08;;;;;;;8.07;1.20;;;15.70;96.00;;;;;;5003402;28;20045;-46
2022/06/19 01:33:45;;;;;;;8.02;1.33;;;15.60;95.60;;;;;;5001565;28;20046;-46
2022/06/19 01:36:13;;;;;;;3.35;0.52;;;15.60;94.90;;;;;;5004068;28;20034;-47
2022/06/19 01:38:39;;;;;;;8.07;1.33;;;15.60;94.20;;;;;;5005627;28;20073;-46
2022/06/19 01:41:11;;;;;;;5.68;0.93;;;15.60;93.40;;;;;;5008073;28;20190;-49
2022/06/19 01:43:37;;;;;;;4.78;0.85;;;15.50;92.70;;;;;;4971807;28;20046;-46
2022/06/19 01:46:04;;;;;;;8.18;0.70;;;15.50;91.90;;;;;;5007407;28;20037;-46
2022/06/19 01:48:32;;;;;;;3.70;0.75;;;15.50;91.40;;;;;;5007122;28;20137;-47
2022/06/19 01:51:00;;;;;;;6.38;0.55;;;15.50;90.90;;;;;;4985785;28;20046;-48
2022/06/19 01:53:52;;;;;;;5.82;0.70;;;15.50;90.40;;;;;;5004858;28;20129;-46
2022/06/19 01:56:18;;;;;;;3.10;0.60;;;15.50;89.60;;;;;;5009891;28;20145;-43
2022/06/19 01:58:49;;;;;;;2.95;0.40;;;15.40;89.20;;;;;;5004657;28;21043;-47
2022/06/19 02:01:14;;;;;;;6.07;0.90;;;15.40;89.00;;;;;;5008546;28;20048;-48
2022/06/19 02:03:50;;;;;;;4.18;0.70;;;15.50;88.10;;;;;;5000485;28;20037;-46
2022/06/19 02:06:24;;;;;;;6.03;0.63;;;15.50;88.10;;;;;;5007078;28;20120;-48
2022/06/19 02:08:50;;;;;;;6.43;0.93;;;15.50;88.20;;;;;;5004665;28;20042;-47
2022/06/19 02:11:16;;;;;;;5.72;0.70;;;15.50;88.40;;;;;;5006269;28;20526;-46
2022/06/19 02:13:43;;;;;;;4.75;0.70;;;15.40;89.00;;;;;;5005702;28;20050;-50
2022/06/19 02:16:15;;;;;;;7.55;0.75;;;15.50;90.00;;;;;;5004394;28;20185;-48
2022/06/19 02:18:45;;;;;;;7.17;1.10;;;15.50;90.40;;;;;;5007910;28;20042;-45
2022/06/19 02:21:18;;;;;;;5.70;0.90;;;15.50;90.50;;;;;;5006194;28;21260;-47
2022/06/19 02:23:44;;;;;;;8.25;0.80;;;15.40;91.00;;;;;;5007022;28;20042;-48
2022/06/19 02:26:10;;;;;;;6.25;0.70;;;15.40;91.10;;;;;;5007988;28;20404;-48
2022/06/19 02:28:39;;;;;;;5.53;0.90;;;15.40;91.50;;;;;;5004731;28;20487;-49
2022/06/19 02:31:09;;;;;;;4.70;0.63;;;15.30;91.50;;;;;;5001101;28;20046;-45
2022/06/19 02:33:41;;;;;;;4.88;0.90;;;15.30;91.60;;;;;;5003824;28;20125;-47
2022/06/19 02:36:48;;;;;;;7.53;0.82;;;15.40;91.80;;;;;;5007339;28;20041;-46
2022/06/19 02:39:21;;;;;;;10.80;1.10;;;15.40;92.00;;;;;;5008266;28;20120;-50
2022/06/19 02:42:27;;;;;;;3.83;0.77;;;15.30;91.90;;;;;;5007233;28;20104;-46
2022/06/19 02:45:01;;;;;;;7.20;0.85;;;15.30;92.40;;;;;;4986315;28;20046;-49
2022/06/19 02:47:30;;;;;;;5.90;0.90;;;15.30;92.60;;;;;;5006451;28;20034;-46
2022/06/19 02:49:56;;;;;;;5.57;0.93;;;15.40;92.80;;;;;;5008270;28;20064;-46
2022/06/19 02:52:21;;;;;;;7.88;1.35;;;15.40;93.30;;;;;;5007927;28;20072;-48
2022/06/19 02:54:48;;;;;;;8.55;1.15;;;15.40;93.60;;;;;;4991945;28;20042;-47
2022/06/19 02:57:14;;;;;;;6.10;1.00;;;15.40;94.00;;;;;;5008335;28;20042;-42
2022/06/19 02:59:40;;;;;;;8.13;1.20;;;15.40;94.80;;;;;;4973666;28;20038;-43
2022/06/19 03:02:07;;;;;;;14.40;1.88;;;15.30;95.00;;;;;;5007845;28;20052;-44
2022/06/19 03:04:40;;;;;;;8.35;1.00;;;15.30;95.70;;;;;;5009614;28;20124;-45
2022/06/19 03:07:06;;;;;;;8.90;0.98;;;15.20;96.10;;;;;;5008627;28;20133;-46
2022/06/19 03:09:32;;;;;;;11.85;1.10;;;15.20;96.50;;;;;;5006485;28;20457;-44
2022/06/19 03:11:57;;;;;;;7.55;0.98;;;15.10;96.70;;;;;;5003760;28;20122;-43
2022/06/19 03:14:24;;;;;;;6.10;1.17;;;15.10;97.20;;;;;;5007677;28;20450;-48
2022/06/19 03:16:50;;;;;;;8.40;1.10;;;15.00;97.90;;;;;;5009570;28;20058;-47
2022/06/19 03:19:16;;;;;;;9.18;1.77;;;15.00;98.60;;;;;;5006733;28;20152;-45
2022/06/19 03:21:42;;;;;;;8.57;1.50;;;15.00;98.50;;;;;;5007846;28;20042;-48
2022/06/19 03:24:08;;;;;;;11.70;1.23;;;15.00;98.70;;;;;;4990034;28;20460;-49
2022/06/19 03:26:33;;;;;;;5.50;1.20;;;15.00;98.50;;;;;;4991381;28;20057;-45
2022/06/19 03:28:59;;;;;;;9.63;1.27;;;15.00;98.60;;;;;;5006734;28;20131;-49
2022/06/19 03:31:26;;;;;;;8.07;1.00;;;15.00;98.50;;;;;;5009539;28;20084;-44
2022/06/19 03:33:52;;;;;;;8.50;1.20;;;15.10;98.40;;;;;;5006530;28;20088;-47
2022/06/19 03:36:18;;;;;;;5.07;1.10;;;15.10;98.20;;;;;;5006619;28;20523;-47
2022/06/19 03:38:44;;;;;;;9.95;1.40;;;15.10;98.40;;;;;;5007251;28;20056;-46
2022/06/19 03:41:10;;;;;;;9.30;0.80;;;15.10;98.30;;;;;;5008081;28;20042;-46
2022/06/19 03:43:36;;;;;;;12.82;1.30;;;15.10;98.40;;;;;;5003220;28;20085;-45
2022/06/19 03:46:12;;;;;;;7.25;0.93;;;15.10;98.50;;;;;;5007249;28;20041;-48
2022/06/19 03:48:40;;;;;;;10.45;1.52;;;15.10;98.60;;;;;;5000855;28;20539;-44
2022/06/19 03:51:06;;;;;;;7.32;1.05;;;15.10;98.50;;;;;;5007702;28;20077;-45
2022/06/19 03:53:31;;;;;;;13.55;1.20;;;15.10;98.50;;;;;;5006804;28;20545;-48
2022/06/19 03:55:58;;;;;;;8.13;0.90;;;15.10;98.40;;;;;;5006071;28;20074;-48
2022/06/19 03:58:23;;;;;;;11.35;1.17;;;15.10;98.30;;;;;;5005655;28;20045;-46
2022/06/19 04:00:49;;;;;;;12.93;1.88;;;15.10;98.60;;;;;;5007883;28;20034;-49
2022/06/19 04:03:15;;;;;;;7.05;1.13;;;15.10;99.00;;;;;;5006262;28;20038;-45
2022/06/19 04:05:40;;;;;;;9.63;0.95;;;15.00;99.70;;;;;;5004976;28;20046;-47
2022/06/19 04:08:06;;;;;;;8.90;0.95;;;14.90;99.70;;;;;;5007719;28;20033;-46
2022/06/19 04:10:32;;;;;;;8.75;1.20;;;14.90;99.80;;;;;;5004160;28;20062;-45
2022/06/19 04:12:58;;;;;;;9.27;0.80;;;14.90;99.60;;;;;;5006519;28;20120;-48
2022/06/19 04:15:24;;;;;;;8.77;1.25;;;14.90;99.30;;;;;;5005121;28;20523;-49
2022/06/19 04:17:50;;;;;;;7.45;0.90;;;14.80;99.20;;;;;;5005510;28;20038;-47
2022/06/19 04:20:15;;;;;;;5.35;0.73;;;14.80;98.60;;;;;;5006939;28;20112;-48
2022/06/19 04:22:41;;;;;;;6.40;0.70;;;14.80;98.30;;;;;;5007110;28;20057;-48
2022/06/19 04:25:13;;;;;;;5.65;0.90;;;14.80;97.80;;;;;;5006194;28;20129;-49
2022/06/19 04:27:40;;;;;;;4.97;0.70;;;14.90;97.30;;;;;;5005787;28;20368;-49
2022/06/19 04:30:07;;;;;;;3.42;0.73;;;14.90;96.60;;;;;;5004759;28;20038;-46
2022/06/19 04:32:33;;;;;;;8.48;0.77;;;14.90;96.00;;;;;;5004815;28;20034;-46
2022/06/19 04:34:58;;;;;;;11.60;1.15;;;14.90;95.70;;;;;;5007211;28;20045;-50
2022/06/19 04:37:24;;;;;;;3.28;0.68;;;15.00;95.40;;;;;;5007796;28;20080;-47
2022/06/19 04:39:49;;;;;;;4.57;1.00;;;15.00;95.30;;;;;;5005924;28;20049;-44
2022/06/19 04:42:15;;;;;;;7.32;0.70;;;15.10;95.20;;;;;;5003379;28;20410;-44
2022/06/19 04:44:41;;;;;;;6.25;0.73;;;15.10;95.00;;;;;;5005464;28;20068;-44
2022/06/19 04:47:06;;;;;;;4.85;0.65;;;15.10;95.20;;;;;;5007103;28;20034;-47
2022/06/19 04:49:32;;;;;;;7.97;0.80;;;15.10;95.00;;;;;;5011548;28;20245;-44
2022/06/19 04:51:58;;;;;;;8.77;1.10;;;15.20;95.00;;;;;;5011210;28;20506;-45
2022/06/19 04:54:23;;;;;;;4.47;0.80;;;15.20;95.00;;;;;;4991978;28;20041;-47
2022/06/19 04:56:49;;;;;;;4.47;0.63;;;15.40;94.60;;;;;;5009703;28;20167;-48
2022/06/19 04:59:15;;;;;;;6.40;0.80;;;15.40;94.70;;;;;;5009864;28;20057;-43
2022/06/19 05:01:40;;;;;;;5.32;0.88;;;15.40;94.80;;;;;;5010214;28;20424;-47
2022/06/19 05:04:10;;;;;;;6.88;0.93;;;15.40;95.10;;;;;;5006681;28;20499;-48
2022/06/19 05:06:35;;;;;;;8.07;0.90;;;15.40;95.30;;;;;;5010507;28;20484;-45
2022/06/19 05:09:02;;;;;;;7.57;0.88;;;15.40;95.40;;;;;;5010076;28;20045;-47
2022/06/19 05:11:31;;;;;;;5.03;0.70;;;15.20;95.90;;;;;;5011923;28;20061;-43
2022/06/19 05:13:57;;;;;;;5.72;0.93;;;15.20;96.30;;;;;;5007606;28;20574;-45
2022/06/19 05:16:23;;;;;;;5.25;0.90;;;15.10;96.60;;;;;;5005780;28;20116;-46
2022/06/19 05:18:51;;;;;;;7.88;1.17;;;15.10;97.20;;;;;;5008219;28;20440;-46
2022/06/19 05:21:17;;;;;;;8.60;1.23;;;15.00;97.70;;;;;;5006771;28;20034;-46
2022/06/19 05:23:45;;;;;;;8.85;0.70;;;14.90;98.30;;;;;;5008144;28;20052;-45
2022/06/19 05:26:16;;;;;;;4.70;1.08;;;14.90;98.80;;;;;;5006124;28;20077;-45
2022/06/19 05:28:43;;;;;;;7.75;1.23;;;14.80;99.80;;;;;;5009270;28;20120;-46
2022/06/19 05:31:09;;;;;;;7.28;1.05;;;14.70;99.90;;;;;;5009149;28;20483;-43
2022/06/19 05:33:34;;;;;;;10.10;1.38;;;14.70;99.90;;;;;;5006244;28;20069;-42
2022/06/19 05:36:00;;;;;;;7.10;1.13;;;14.60;99.90;;;;;;5008472;28;20067;-45
2022/06/19 05:38:27;;;;;;;8.07;1.13;;;14.70;99.90;;;;;;5005600;28;20034;-45
2022/06/19 05:40:55;;;;;;;5.55;1.17;;;14.70;99.90;;;;;;5008837;28;20050;-46
2022/06/19 05:43:22;;;;;;;8.80;1.27;;;14.70;99.90;;;;;;5007650;28;20049;-48
2022/06/19 05:45:55;;;;;;;7.88;1.00;;;14.80;99.90;;;;;;4990830;28;20037;-48
2022/06/19 05:48:23;;;;;;;8.40;0.82;;;14.80;99.90;;;;;;5006103;28;20113;-44
2022/06/19 05:51:07;;;;;;;12.20;1.88;;;14.90;99.90;;;;;;5010644;28;20049;-46
2022/06/19 05:53:42;;;;;;;7.63;0.93;;;14.90;99.90;;;;;;5007421;28;20038;-44
2022/06/19 05:56:09;;;;;;;9.05;1.02;;;14.90;99.90;;;;;;4989378;28;20041;-49
2022/06/19 05:58:35;;;;;;;11.30;1.13;;;14.90;99.90;;;;;;5005677;28;20484;-45
2022/06/19 06:01:02;;;;;;;6.22;0.80;;;14.90;99.90;;;;;;4985490;28;20057;-45
2022/06/19 06:03:28;;;;;;;8.55;1.33;;;15.00;99.90;;;;;;5007651;28;20056;-44
2022/06/19 06:06:02;;;;;;;8.70;0.90;;;15.00;99.90;;;;;;5006858;28;20448;-45
2022/06/19 06:08:29;;;;;;;6.80;1.08;;;14.90;99.90;;;;;;5008197;28;20061;-46
2022/06/19 06:10:55;;;;;;;5.55;0.98;;;14.90;99.60;;;;;;5002447;28;20388;-46
2022/06/19 06:13:20;;;;;;;7.32;0.60;;;15.00;99.60;;;;;;5007687;28;20049;-48
2022/06/19 06:15:47;;;;;;;8.13;1.05;;;14.90;99.40;;;;;;5005367;28;20128;-45
2022/06/19 06:18:13;;;;;;;8.15;0.90;;;14.90;98.90;;;;;;5007720;28;20054;-47
2022/06/19 06:20:39;;;;;;;6.38;0.90;;;14.90;98.70;;;;;;5007612;28;20049;-47
2022/06/19 06:23:05;;;;;;;6.07;0.95;;;14.90;98.70;;;;;;5009270;28;20037;-45
2022/06/19 06:25:30;;;;;;;5.93;1.15;;;14.90;98.60;;;;;;5009268;28;20046;-46
2022/06/19 06:27:56;;;;;;;6.32;0.90;;;15.00;98.60;;;;;;5005099;28;20045;-45
2022/06/19 06:30:22;;;;;;;7.32;1.15;;;15.10;98.60;;;;;;5007263;28;20384;-45
2022/06/19 06:32:48;;;;;;;8.20;1.40;;;15.10;98.50;;;;;;5008761;28;20053;-47
2022/06/19 06:35:14;;;;;;;9.57;1.30;;;15.10;98.60;;;;;;5003890;28;20042;-46
2022/06/19 06:37:40;;;;;;;6.70;1.05;;;15.10;99.00;;;;;;5003633;28;20108;-47
2022/06/19 06:40:07;;;;;;;7.05;0.95;;;15.10;98.90;;;;;;5001392;28;20482;-45
2022/06/19 06:42:34;;;;;;;12.63;1.83;;;15.10;99.10;;;;;;5004040;28;20046;-48
2022/06/19 06:45:00;;;;;;;7.07;1.05;;;15.00;99.40;;;;;;5006881;28;20053;-47
2022/06/19 06:47:26;;;;;;;8.35;1.33;;;15.00;99.50;;;;;;5007677;28;20602;-48
2022/06/19 06:49:52;;;;;;;8.70;1.30;;;15.00;99.80;;;;;;5005578;28;20097;-49
2022/06/19 06:52:17;;;;;;;11.10;1.42;;;15.00;99.90;;;;;;5004712;28;20186;-47
2022/06/19 06:54:43;;;;;;;6.90;1.42;;;15.00;99.90;;;;;;5001237;28;20180;-48
2022/06/19 06:57:09;;;;;;;7.28;1.30;;;15.10;99.90;;;;;;4970092;28;20045;-43
2022/06/19 06:59:36;;;;;;;9.57;1.20;;;15.10;99.90;;;;;;4996819;28;20034;-40
2022/06/19 07:02:03;;;;;;;7.15;1.42;;;15.20;99.90;;;;;;5003952;28;20038;-46
2022/06/19 07:04:29;;;;;;;9.38;1.25;;;15.30;99.90;;;;;;5005030;28;20038;-46
2022/06/19 07:06:55;;;;;;;8.13;1.38;;;15.40;99.70;;;;;;5006559;28;20719;-48
2022/06/19 07:09:20;;;;;;;8.27;1.15;;;15.60;98.80;;;;;;4986784;28;20073;-46
2022/06/19 07:11:46;;;;;;;7.43;1.58;;;15.80;98.20;;;;;;5003431;28;20103;-45
2022/06/19 07:14:13;;;;;;;9.00;1.60;;;15.90;97.80;;;;;;5004640;28;20132;-44
2022/06/19 07:16:40;;;;;;;8.77;1.40;;;16.00;97.10;;;;;;5007823;28;20050;-45
2022/06/19 07:19:06;;;;;;;8.63;1.27;;;16.20;96.60;;;;;;5006440;28;20036;-44
2022/06/19 07:21:32;;;;;;;8.80;1.48;;;16.20;96.30;;;;;;5005650;28;20053;-44
2022/06/19 07:23:58;;;;;;;10.52;1.63;;;16.30;96.10;;;;;;5002824;28;20042;-45
2022/06/19 07:26:25;;;;;;;5.70;1.08;;;16.20;95.80;;;;;;5005899;28;20034;-42
2022/06/19 07:28:51;;;;;;;6.15;1.23;;;16.20;95.70;;;;;;5006173;28;20038;-43
2022/06/19 07:31:17;;;;;;;10.98;1.33;;;16.30;95.40;;;;;;5007119;28;20057;-43
2022/06/19 07:33:42;;;;;;;10.45;1.30;;;16.40;95.20;;;;;;5002687;28;20514;-46
2022/06/19 07:36:13;;;;;;;10.98;1.67;;;16.30;95.20;;;;;;5005059;28;20081;-45
2022/06/19 07:38:39;;;;;;;9.10;1.38;;;16.30;95.30;;;;;;5004054;28;20049;-44
2022/06/19 07:41:05;;;;;;;9.82;0.98;;;16.40;95.10;;;;;;4999068;28;20038;-48
2022/06/19 07:43:31;;;;;;;9.25;1.73;;;16.40;94.80;;;;;;4987375;28;20496;-44
2022/06/19 07:45:56;;;;;;;8.65;1.95;;;16.60;94.80;;;;;;5004984;28;20083;-45
2022/06/19 07:51:06;;;;;;;7.50;1.20;;;16.60;94.50;;;;;;5003190;28;20077;-45
2022/06/19 07:53:32;;;;;;;8.93;1.30;;;16.70;94.60;;;;;;5002560;28;20042;-48
2022/06/19 07:55:58;;;;;;;10.20;2.08;;;16.60;94.70;;;;;;5003721;28;20042;-45
2022/06/19 07:58:23;;;;;;;9.07;1.38;;;16.60;94.90;;;;;;5005533;28;20475;-48
2022/06/19 08:00:49;;;;;;;10.40;1.20;;;16.80;94.40;;;;;;5004623;28;20348;-44
2022/06/19 08:03:15;;;;;;;7.80;1.30;;;16.80;94.40;;;;;;5005308;28;20053;-47
2022/06/19 08:05:43;;;;;;;10.82;1.50;;;16.90;94.40;;;;;;5006982;28;20056;-45
2022/06/19 08:08:16;;;;;;;9.77;1.42;;;16.90;94.60;;;;;;5004030;28;20506;-45
2022/06/19 08:10:43;;;;;;;11.60;2.15;;;16.80;94.80;;;;;;5001572;28;20438;-46
2022/06/19 08:13:10;;;;;;;8.30;1.40;;;16.80;95.00;;;;;;5004506;28;20073;-48
2022/06/19 08:15:36;;;;;;;14.85;1.75;;;16.80;95.30;;;;;;4982649;28;21606;-45
2022/06/19 08:18:02;;;;;;;12.95;1.42;;;16.70;95.70;;;;;;4994945;28;20242;-45
2022/06/19 08:20:28;;;;;;;6.95;1.45;;;16.70;96.20;;;;;;5005070;28;20034;-44
2022/06/19 08:22:54;;;;;;;8.68;1.30;;;16.50;96.50;;;;;;5006696;28;20113;-43
2022/06/19 08:25:21;;;;;;;10.15;1.83;;;16.40;97.20;;;;;;5011029;28;20034;-48
2022/06/19 08:27:49;;;;;;;10.25;1.75;;;16.30;97.70;;;;;;5003030;28;20108;-45
2022/06/19 08:30:31;;;;;;;9.63;1.40;;;16.30;98.00;;;;;;5008879;28;20069;-43
2022/06/19 08:32:57;;;;;;;8.20;1.55;;;16.40;98.10;;;;;;5007733;28;20392;-51
2022/06/19 08:35:23;;;;;;;7.43;1.65;;;16.40;98.00;;;;;;5008482;28;20041;-45
2022/06/19 08:37:54;;;;;;;8.80;1.40;;;16.40;98.20;;;;;;5007418;28;20034;-45
2022/06/19 08:40:41;;;;;;;7.25;1.17;;;16.50;98.20;;;;;;5008398;28;20225;-47
2022/06/19 08:43:13;;;;;;;7.45;1.17;;;16.50;98.20;;;;;;5001636;28;20116;-47
2022/06/19 08:45:44;;;;;;;9.77;1.58;;;16.50;98.00;;;;;;5003373;28;20046;-43
2022/06/19 08:48:33;;;;;;;7.55;1.20;;;16.50;98.10;;;;;;5005206;28;20034;-45
2022/06/19 08:51:14;;;;;;;6.63;1.02;;;16.50;98.00;;;;;;4960590;28;20402;-44
2022/06/19 08:53:57;;;;;;;6.90;1.20;;;16.40;98.00;;;;;;5003726;28;20038;-44
2022/06/19 08:56:40;;;;;;;8.73;0.95;;;16.40;98.40;;;;;;5005545;28;20029;-42
2022/06/19 08:59:29;;;;;;;8.43;1.33;;;16.50;98.20;;;;;;5007313;28;20052;-48
2022/06/19 09:02:20;;;;;;;5.50;0.85;;;16.60;98.00;;;;;;5005282;28;20107;-49
2022/06/19 09:08:11;;;;;;;8.13;1.00;;;16.50;98.00;;;;;;5002566;28;20059;-43
2022/06/19 09:11:02;;;;;;;7.68;1.27;;;16.40;98.10;;;;;;5006525;28;20120;-44
2022/06/19 09:13:39;;;;;;;7.95;0.88;;;16.30;98.50;;;;;;4989928;28;20446;-49
2022/06/19 09:16:28;;;;;;;8.98;1.30;;;16.20;98.30;;;;;;5006630;28;20542;-44
2022/06/19 09:18:59;;;;;;;6.47;0.80;;;16.20;98.70;;;;;;5007411;28;20503;-45
2022/06/19 09:21:33;;;;;;;8.75;2.00;;;16.10;98.80;;;;;;4989794;28;20038;-45
2022/06/19 09:24:14;;;;;;;5.88;1.08;;;16.20;98.90;;;;;;5010846;28;20046;-43
2022/06/19 09:26:59;;;;;;;11.48;1.10;;;16.30;98.70;;;;;;5007543;28;20053;-44
2022/06/19 09:29:32;;;;;;;8.18;1.23;;;16.40;98.20;;;;;;5007209;28;20049;-44
2022/06/19 09:32:05;;;;;;;7.30;0.98;;;16.50;98.10;;;;;;5008313;28;20440;-42
2022/06/19 09:34:39;;;;;;;6.22;1.42;;;16.50;98.00;;;;;;5006681;28;20054;-45
2022/06/19 09:37:24;;;;;;;4.80;0.90;;;16.50;97.80;;;;;;5007891;28;20030;-46
2022/06/19 09:40:04;;;;;;;7.35;1.88;;;16.60;98.20;;;;;;5004113;28;20054;-44
2022/06/19 09:42:42;;;;;;;7.47;0.70;;;16.60;98.00;;;;;;5007480;28;20041;-45
2022/06/19 09:45:20;;;;;;;5.32;1.13;;;16.70;97.50;;;;;;5006765;28;20411;-51
2022/06/19 09:48:16;;;;;;;9.00;1.13;;;16.70;97.20;;;;;;5007148;28;20080;-44
2022/06/19 09:50:49;;;;;;;6.20;1.15;;;16.80;97.10;;;;;;5009010;28;20046;-45
2022/06/19 09:53:35;;;;;;;5.57;0.80;;;16.80;96.80;;;;;;4996234;28;20042;-45
2022/06/19 09:56:13;;;;;;;3.55;0.60;;;16.70;96.40;;;;;;4975360;28;20042;-45
2022/06/19 09:58:50;;;;;;;7.85;1.35;;;16.80;96.60;;;;;;5003548;28;20100;-44
2022/06/19 10:01:16;;;;;;;5.47;1.15;;;16.70;96.60;;;;;;4997040;28;20046;-42
2022/06/19 10:03:48;;;;;;;9.52;1.05;;;16.70;96.70;;;;;;4998934;28;20042;-42
2022/06/19 10:06:21;;;;;;;6.30;0.90;;;16.70;96.60;;;;;;5003328;28;20543;-44
2022/06/19 10:08:54;;;;;;;9.75;1.38;;;16.90;96.30;;;;;;5010454;28;20172;-43
2022/06/19 10:11:28;;;;;;;11.77;1.73;;;17.00;95.70;;;;;;5008642;28;20045;-49
2022/06/19 10:14:01;;;;;;;7.25;1.13;;;17.20;95.30;;;;;;5008493;28;20057;-45
2022/06/19 10:16:32;;;;;;;5.45;0.88;;;17.40;95.00;;;;;;5008213;28;20173;-45
2022/06/19 10:19:01;;;;;;;4.43;0.70;;;17.60;94.40;;;;;;5012790;28;20049;-43
2022/06/19 10:24:48;;;;;;;4.25;0.70;;;17.80;93.70;;;;;;5005208;28;20042;-43
2022/06/19 10:27:24;;;;;;;6.15;0.80;;;17.90;93.50;;;;;;4996026;28;20481;-43
2022/06/19 10:30:14;;;;;;;4.88;0.90;;;18.10;93.10;;;;;;5006838;28;20429;-46
2022/06/19 10:32:52;;;;;;;3.08;0.70;;;18.30;92.40;;;;;;5008840;28;20483;-44
2022/06/19 10:35:28;;;;;;;5.25;0.95;;;18.50;92.00;;;;;;5007234;28;20046;-43
2022/06/19 10:38:03;;;;;;;1.95;0.52;;;18.70;91.40;;;;;;5006789;28;20045;-44
2022/06/19 10:40:50;;;;;;;4.75;0.55;;;19.00;91.20;;;;;;5009198;28;20068;-43
2022/06/19 10:43:33;;;;;;;2.65;0.50;;;19.10;90.20;;;;;;5007074;28;20099;-43
2022/06/19 10:46:05;;;;;;;3.70;0.70;;;19.00;89.40;;;;;;5003696;28;20505;-43
2022/06/19 10:48:31;;;;;;;;;;;19.00;89.40;;;;;;5007060;28;20068;-42
2022/06/19 10:51:06;;;;;;;5.22;0.75;;;19.00;87.60;;;;;;5009245;28;19953;-45
2022/06/19 10:53:59;;;;;;;6.10;0.80;;;18.90;89.50;;;;;;5007181;28;20045;-45
2022/06/19 10:57:14;;;;;;;6.03;1.05;;;18.80;88.90;;;;;;4992530;28;20477;-45
2022/06/19 10:59:40;;;;;;;5.63;0.88;;;18.70;89.40;;;;;;4928547;29;20516;-44
2022/06/19 11:05:37;;;;;;;;;;;18.50;90.40;;;;;;4993481;28;20507;-43
2022/06/19 11:08:03;;;;;;;5.57;0.93;;;18.40;89.40;;;;;;5007303;28;19928;-43
2022/06/19 11:10:38;;;;;;;8.32;0.50;;;18.30;90.50;;;;;;5007481;28;20037;-43
2022/06/19 11:13:05;;;;;;;1.85;0.47;;;18.20;90.60;;;;;;5001354;28;20046;-42
2022/06/19 11:15:37;;;;;;;3.33;0.60;;;18.20;90.50;;;;;;5006047;28;20046;-43
2022/06/19 11:18:12;;;;;;;;;;;18.20;90.30;;;;;;5005619;28;20491;-44
2022/06/19 11:20:39;;;;;;;5.72;0.52;;;18.30;89.90;;;;;;5007627;28;20346;-45
2022/06/19 11:23:27;;;;;;;4.50;0.55;;;18.40;89.70;;;;;;5006668;28;20046;-43
2022/06/19 11:26:19;;;;;;;3.75;0.70;;;18.50;88.20;;;;;;4999967;28;20050;-42
2022/06/19 11:28:57;;;;;;;8.30;1.10;;;18.50;85.70;;;;;;5002844;28;20062;-44
2022/06/19 11:31:36;;;;;;;2.78;0.50;;;18.50;87.10;;;;;;4996252;28;20037;-45
2022/06/19 11:34:59;;;;;;;3.95;0.60;;;18.50;86.10;;;;;;5006963;28;20532;-43
2022/06/19 11:37:25;;;;;;;3.70;0.60;;;18.50;86.20;;;;;;4991001;28;20038;-45
2022/06/19 11:39:59;;;;;;;4.30;0.77;;;18.60;85.70;;;;;;5007082;28;20095;-45
2022/06/19 11:42:38;;;;;;;3.50;0.47;;;18.60;85.80;;;;;;5001118;28;20061;-42
2022/06/19 11:45:21;;;;;;;4.35;0.50;;;18.50;85.20;;;;;;5007985;28;20076;-41
2022/06/19 11:48:16;;;;;;;2.95;0.40;;;18.40;85.40;;;;;;5006608;28;20144;-41
2022/06/19 11:50:51;;;;;;;2.38;0.50;;;18.50;85.20;;;;;;5007752;28;20419;-42
2022/06/19 11:53:21;;;;;;;2.83;0.52;;;18.40;85.00;;;;;;4986232;28;20046;-45
2022/06/19 11:55:52;;;;;;;5.60;0.80;;;18.30;85.90;;;;;;5007384;28;20531;-44
2022/06/19 11:58:30;;;;;;;3.60;0.70;;;18.30;86.20;;;;;;5005340;28;20156;-44
2022/06/19 12:01:06;;;;;;;4.20;0.70;;;18.20;86.10;;;;;;5011557;28;20037;-43
2022/06/19 12:03:43;;;;;;;4.60;0.70;;;18.20;85.80;;;;;;5007907;28;20045;-44
2022/06/19 12:06:11;;;;;;;3.85;0.68;;;18.10;86.60;;;;;;5007691;28;20046;-43
2022/06/19 12:08:57;;;;;;;3.45;0.85;;;18.10;86.30;;;;;;5007973;28;20045;-43
2022/06/19 12:11:37;;;;;;;4.13;0.70;;;18.20;86.00;;;;;;5007790;28;20054;-44
2022/06/19 12:14:07;;;;;;;3.63;0.60;;;18.50;85.20;;;;;;5009483;28;20041;-44
2022/06/19 12:16:34;;;;;;;2.28;0.60;;;18.80;84.00;;;;;;5009409;28;20049;-45
2022/06/19 12:19:22;;;;;;;2.10;0.50;;;19.20;82.30;;;;;;5009600;28;20042;-46
2022/06/19 12:22:01;;;;;;;3.92;0.70;;;19.50;80.70;;;;;;5007213;28;20038;-44
2022/06/19 12:24:43;;;;;;;2.53;0.43;;;19.70;79.70;;;;;;4989126;28;20045;-44
2022/06/19 12:27:16;;;;;;;2.92;0.47;;;20.00;78.90;;;;;;5012300;28;20041;-43
2022/06/19 12:29:47;;;;;;;1.55;0.30;;;20.10;77.00;;;;;;5004333;28;20077;-47
2022/06/19 12:32:24;;;;;;;2.88;0.40;;;20.30;77.00;;;;;;5008205;28;20140;-48
2022/06/19 12:34:53;;;;;;;1.42;0.40;;;20.60;73.90;;;;;;5005538;28;20124;-47
2022/06/19 12:37:25;;;;;;;2.20;0.30;;;20.70;72.70;;;;;;5005089;28;20495;-44
2022/06/19 12:39:51;;;;;;;3.30;0.50;;;20.80;72.00;;;;;;4987179;28;20041;-43
2022/06/19 12:42:31;;;;;;;2.35;0.40;;;20.80;72.20;;;;;;5002927;28;20034;-46
2022/06/19 12:45:13;;;;;;;3.60;0.50;;;20.80;69.60;;;;;;5003510;28;20125;-49
2022/06/19 12:48:01;;;;;;;2.75;0.55;;;20.60;71.00;;;;;;5001453;28;20052;-41
2022/06/19 12:50:45;;;;;;;2.50;0.43;;;20.40;71.40;;;;;;5005823;28;20056;-40
2022/06/19 12:53:30;;;;;;;1.88;0.65;;;20.40;73.10;;;;;;5006280;28;20530;-48
2022/06/19 12:56:04;;;;;;;2.40;0.38;;;20.20;72.20;;;;;;5003066;28;20034;-39
2022/06/19 12:58:51;;;;;;;1.25;0.38;;;20.10;74.80;;;;;;5005414;28;20038;-41
2022/06/19 13:01:28;;;;;;;3.70;0.50;;;20.00;74.50;;;;;;5007730;28;20050;-40
2022/06/19 13:04:33;;;;;;;2.67;0.43;;;20.00;74.90;;;;;;5006608;28;20095;-39
2022/06/19 13:07:40;;;;;;;2.33;0.60;;;20.00;75.80;;;;;;5004762;28;20068;-44
2022/06/19 13:10:28;;;;;;;1.85;0.47;;;19.90;76.90;;;;;;5008963;28;20053;-43
2022/06/19 13:13:22;;;;;;;2.17;0.50;;;19.80;77.80;;;;;;5009983;28;20134;-50
2022/06/19 13:15:51;;;;;;;1.70;0.40;;;19.80;77.50;;;;;;5006763;28;20105;-42
2022/06/19 13:18:46;;;;;;;2.50;0.30;;;19.90;77.90;;;;;;5006166;28;20046;-40
2022/06/19 13:21:40;;;;;;;2.92;0.50;;;20.10;76.80;;;;;;5002315;28;20042;-46
2022/06/19 13:24:13;;;;;;;1.17;0.30;;;20.10;76.70;;;;;;4986874;28;20137;-48